createdAt,value
2023-05-19T00:01:38.645Z,73.56
2023-05-19T00:04:41.159Z,68.72
2023-05-19T00:07:43.135Z,71.74
2023-05-19T00:10:45.541Z,68.90
2023-05-19T00:13:49.742Z,69.96
2023-05-19T00:16:51.857Z,71.89
2023-05-19T00:19:54.930Z,74.46
2023-05-19T00:22:56.978Z,75.05
2023-05-19T00:25:59.066Z,73.35
2023-05-19T00:29:01.029Z,71.64
2023-05-19T00:32:03.147Z,69.37
2023-05-19T00:35:05.818Z,70.87
2023-05-19T00:38:07.721Z,69.02
2023-05-19T00:41:09.760Z,69.21
2023-05-19T00:44:11.801Z,69.35
2023-05-19T00:47:15.920Z,75.58
2023-05-19T00:50:18.126Z,74.30
2023-05-19T00:53:22.648Z,74.92
2023-05-19T00:56:24.627Z,77.03
2023-05-19T00:59:28.701Z,76.58
2023-05-19T01:02:30.825Z,75.19
2023-05-19T01:05:32.859Z,78.69
2023-05-19T01:08:37.404Z,75.83
2023-05-19T01:11:39.450Z,73.76
2023-05-19T01:14:41.659Z,73.95
2023-05-19T01:17:54.798Z,74.24
2023-05-19T01:21:16.125Z,73.40
2023-05-19T01:24:36.834Z,77.30
2023-05-19T01:28:03.449Z,75.14
2023-05-19T01:31:07.533Z,75.27
2023-05-19T01:34:09.595Z,71.94
2023-05-19T01:37:11.960Z,73.43
2023-05-19T01:40:14.115Z,76.84
2023-05-19T01:43:20.572Z,75.18
2023-05-19T01:46:22.497Z,72.92
2023-05-19T01:49:24.467Z,75.15
2023-05-19T01:52:26.509Z,75.30
2023-05-19T01:55:28.688Z,72.97
2023-05-19T01:58:39.824Z,70.49
2023-05-19T02:01:51.244Z,69.65
2023-05-19T02:04:57.981Z,72.17
2023-05-19T02:08:20.177Z,74.05
2023-05-19T02:11:25.508Z,75.39
2023-05-19T02:14:32.029Z,72.73
2023-05-19T02:17:36.524Z,71.06
2023-05-19T02:20:39.624Z,74.83
2023-05-19T02:23:42.074Z,76.17
2023-05-19T02:26:44.095Z,75.58
2023-05-19T02:29:46.208Z,75.16
2023-05-19T02:32:48.286Z,73.51
2023-05-19T02:35:50.833Z,76.29
2023-05-19T02:38:53.384Z,78.37
2023-05-19T02:41:58.094Z,80.63
2023-05-19T02:45:00.810Z,78.94
2023-05-19T02:48:03.014Z,76.79
2023-05-19T02:51:05.377Z,77.43
2023-05-19T02:54:07.362Z,76.18
2023-05-19T02:57:09.290Z,78.20
2023-05-19T03:00:11.476Z,76.84
2023-05-19T03:03:14.005Z,76.93
2023-05-19T03:06:18.273Z,75.70
2023-05-19T03:09:20.713Z,75.22
2023-05-19T03:12:22.963Z,74.98
2023-05-19T03:15:24.988Z,71.72
2023-05-19T03:18:27.281Z,70.58
2023-05-19T03:21:29.242Z,78.82
2023-05-19T03:24:31.665Z,80.38
2023-05-19T03:27:33.612Z,78.97
2023-05-19T03:30:35.723Z,80.63
2023-05-19T03:33:37.776Z,76.78
2023-05-19T03:36:40.340Z,74.53
2023-05-19T03:39:42.272Z,74.04
2023-05-19T03:42:44.931Z,76.91
2023-05-19T03:45:47.243Z,75.61
2023-05-19T03:48:49.228Z,76.24
2023-05-19T03:51:51.195Z,75.30
2023-05-19T03:54:53.278Z,74.27
2023-05-19T03:57:55.351Z,77.31
2023-05-19T04:00:57.380Z,77.04
2023-05-19T04:03:59.438Z,79.21
2023-05-19T04:07:01.487Z,74.66
2023-05-19T04:10:06.806Z,76.84
2023-05-19T04:13:08.835Z,76.01
2023-05-19T04:16:11.172Z,78.28
2023-05-19T04:19:13.295Z,78.08
2023-05-19T04:22:15.273Z,76.59
2023-05-19T04:25:17.242Z,74.35
2023-05-19T04:28:19.291Z,72.46
2023-05-19T04:31:21.916Z,72.65
2023-05-19T04:34:23.991Z,73.17
2023-05-19T04:37:26.366Z,73.60
2023-05-19T04:40:31.788Z,73.81
2023-05-19T04:43:34.443Z,73.46
2023-05-19T04:46:36.827Z,71.20
2023-05-19T04:49:39.268Z,70.47
2023-05-19T04:52:45.727Z,69.64
2023-05-19T04:55:47.926Z,65.15
2023-05-19T04:58:50.193Z,61.94
2023-05-19T05:01:52.512Z,65.05
2023-05-19T05:04:54.987Z,65.92
2023-05-19T05:07:57.745Z,62.21
2023-05-19T05:11:00.064Z,57.71
2023-05-19T05:14:02.271Z,60.21
2023-05-19T05:17:04.458Z,61.85
2023-05-19T05:20:07.475Z,62.34
2023-05-19T05:23:10.056Z,59.17
2023-05-19T05:26:24.346Z,60.72
2023-05-19T05:29:26.427Z,62.76
2023-05-19T05:32:28.969Z,61.54
2023-05-19T05:35:31.162Z,60.21
2023-05-19T05:38:33.577Z,58.61
2023-05-19T05:41:35.628Z,52.76
2023-05-19T05:44:37.620Z,55.26
2023-05-19T05:47:41.510Z,57.50
2023-05-19T05:50:44.471Z,61.21
2023-05-19T05:53:46.778Z,62.37
2023-05-19T05:56:49.552Z,58.24
2023-05-19T05:59:52.196Z,60.06
2023-05-19T06:02:54.547Z,58.96
2023-05-19T06:05:57.116Z,57.97
2023-05-19T06:08:59.616Z,54.56
2023-05-19T06:12:02.349Z,53.30
2023-05-19T06:15:05.198Z,53.60
2023-05-19T06:18:09.913Z,56.35
2023-05-19T06:21:15.304Z,54.70
2023-05-19T06:24:17.946Z,58.20
2023-05-19T06:27:20.153Z,55.87
2023-05-19T06:30:24.951Z,55.44
2023-05-19T06:33:35.837Z,56.96
2023-05-19T06:36:38.154Z,54.40
2023-05-19T06:39:40.435Z,54.01
2023-05-19T06:42:43.955Z,56.32
2023-05-19T06:45:46.504Z,57.06
2023-05-19T06:48:48.881Z,54.64
2023-05-19T06:51:51.262Z,50.86
2023-05-19T06:54:53.427Z,53.73
2023-05-19T06:57:55.984Z,53.49
2023-05-19T07:00:58.094Z,49.45
2023-05-19T07:04:01.815Z,47.62
2023-05-19T07:07:07.907Z,50.06
2023-05-19T07:10:12.984Z,48.70
2023-05-19T07:13:16.138Z,51.94
2023-05-19T07:16:18.267Z,45.49
2023-05-19T07:19:20.464Z,49.22
2023-05-19T07:22:27.003Z,50.74
2023-05-19T07:25:30.735Z,49.85
2023-05-19T07:28:34.634Z,42.70
2023-05-19T07:31:37.060Z,45.14
2023-05-19T07:34:40.214Z,43.12
2023-05-19T07:37:42.361Z,44.54
2023-05-19T07:40:44.632Z,38.27
2023-05-19T07:43:49.038Z,44.26
2023-05-19T07:46:52.686Z,39.51
2023-05-19T07:49:55.341Z,39.67
2023-05-19T07:52:57.353Z,40.16
2023-05-19T07:55:59.524Z,37.65
2023-05-19T07:59:01.995Z,44.21
2023-05-19T08:02:04.136Z,40.51
2023-05-19T08:05:06.550Z,37.00
2023-05-19T08:08:08.629Z,35.32
2023-05-19T08:11:11.384Z,33.07
2023-05-19T08:14:13.453Z,34.67
2023-05-19T08:17:15.631Z,38.20
2023-05-19T08:20:21.134Z,40.38
2023-05-19T08:23:23.618Z,36.54
2023-05-19T08:26:26.427Z,37.58
2023-05-19T08:29:28.508Z,37.04
2023-05-19T08:32:30.793Z,41.87
2023-05-19T08:35:32.973Z,36.18
2023-05-19T08:38:38.105Z,38.55
2023-05-19T08:41:44.293Z,39.29
2023-05-19T08:44:50.179Z,35.33
2023-05-19T08:47:54.586Z,39.51
2023-05-19T08:51:15.770Z,43.42
2023-05-19T08:54:26.893Z,38.26
2023-05-19T08:57:33.684Z,41.50
2023-05-19T09:00:41.100Z,39.54
2023-05-19T09:03:47.465Z,34.98
2023-05-19T09:06:58.766Z,33.90
2023-05-19T09:10:19.523Z,36.86
2023-05-19T09:13:35.993Z,31.40
2023-05-19T09:20:06.135Z,33.60
2023-05-19T09:23:21.159Z,36.42
2023-05-19T09:26:23.892Z,38.51
2023-05-19T09:29:28.098Z,40.08
2023-05-19T09:36:05.725Z,35.24
2023-05-19T09:39:25.785Z,40.09
2023-05-19T09:42:37.826Z,40.73
2023-05-19T09:45:42.876Z,43.01
2023-05-19T09:48:48.728Z,41.84
2023-05-19T09:52:03.341Z,40.49
2023-05-19T09:55:12.080Z,37.46
2023-05-19T09:58:50.358Z,38.91
2023-05-19T10:02:32.802Z,40.67
2023-05-19T10:05:42.087Z,35.72
2023-05-19T10:09:06.794Z,41.87
2023-05-19T10:12:17.881Z,38.17
2023-05-19T10:18:47.750Z,36.21
2023-05-19T10:21:50.503Z,35.91
2023-05-19T10:24:56.353Z,37.49
2023-05-19T10:28:17.437Z,38.53
2023-05-19T10:31:22.365Z,36.83
2023-05-19T10:34:46.268Z,41.38
2023-05-19T10:38:14.878Z,38.69
2023-05-19T10:41:23.248Z,40.86
2023-05-19T10:44:39.773Z,39.50
2023-05-19T10:47:42.741Z,37.99
2023-05-19T10:50:52.213Z,37.20
2023-05-19T10:54:07.799Z,33.79
2023-05-19T11:01:19.753Z,32.83
2023-05-19T11:04:24.851Z,37.57
2023-05-19T11:08:06.037Z,37.06
2023-05-19T11:11:28.921Z,38.96
2023-05-19T11:14:37.985Z,38.03
2023-05-19T11:21:08.162Z,34.80
2023-05-19T11:24:27.305Z,35.79
2023-05-19T11:27:31.949Z,34.21
2023-05-19T11:30:52.722Z,32.48
2023-05-19T11:34:01.859Z,28.44
2023-05-19T11:37:10.005Z,28.95
2023-05-19T11:40:37.562Z,31.77
2023-05-19T11:43:48.087Z,30.15
2023-05-19T11:46:51.152Z,25.59
2023-05-19T11:49:59.386Z,28.72
2023-05-19T11:53:44.623Z,26.29
2023-05-19T11:56:44.828Z,29.31
2023-05-19T11:59:49.826Z,29.07
2023-05-19T12:02:52.212Z,22.99
2023-05-19T12:05:54.499Z,25.01
2023-05-19T12:08:56.695Z,21.31
2023-05-19T12:11:58.574Z,26.15
2023-05-19T12:15:02.945Z,27.60
2023-05-19T12:18:05.019Z,27.52
2023-05-19T12:21:07.356Z,28.31
2023-05-19T12:24:09.398Z,31.20
2023-05-19T12:27:21.383Z,33.10
2023-05-19T12:30:26.662Z,30.76
2023-05-19T12:33:28.558Z,36.00
2023-05-19T12:36:31.914Z,37.61
2023-05-19T12:39:34.037Z,37.16
2023-05-19T12:42:36.032Z,36.94
2023-05-19T12:45:38.980Z,37.57
2023-05-19T12:48:41.921Z,37.95
2023-05-19T12:51:46.457Z,39.38
2023-05-19T12:54:48.494Z,37.47
2023-05-19T12:57:57.008Z,37.79
2023-05-19T13:01:00.436Z,37.11
2023-05-19T13:04:05.398Z,38.26
2023-05-19T13:07:08.245Z,37.14
2023-05-19T13:10:10.221Z,38.78
2023-05-19T13:13:12.550Z,37.42
2023-05-19T13:16:14.577Z,39.78
2023-05-19T13:22:25.534Z,39.15
2023-05-19T13:25:32.801Z,38.72
2023-05-19T13:28:35.009Z,37.42
2023-05-19T13:31:37.052Z,36.63
2023-05-19T13:34:39.004Z,37.97
2023-05-19T13:37:43.788Z,36.94
2023-05-19T13:40:45.913Z,38.54
2023-05-19T13:43:47.766Z,36.45
2023-05-19T13:46:50.812Z,38.10
2023-05-19T13:49:54.192Z,39.68
2023-05-19T13:52:56.355Z,39.36
2023-05-19T13:55:58.227Z,39.37
2023-05-19T13:59:00.266Z,38.20
2023-05-19T14:02:05.664Z,37.61
2023-05-19T14:05:08.314Z,37.57
2023-05-19T14:08:11.364Z,38.18
2023-05-19T14:11:19.963Z,37.59
2023-05-19T14:14:21.970Z,35.22
2023-05-19T14:17:24.133Z,37.65
2023-05-19T14:20:27.951Z,36.48
2023-05-19T14:23:32.080Z,38.10
2023-05-19T14:26:34.011Z,39.12
2023-05-19T14:29:38.067Z,36.01
2023-05-19T14:32:40.184Z,37.22
2023-05-19T14:35:42.127Z,36.42
2023-05-19T14:38:44.167Z,35.84
2023-05-19T14:41:46.262Z,36.51
2023-05-19T14:44:48.225Z,35.74
2023-05-19T14:47:50.196Z,36.66
2023-05-19T14:50:52.642Z,37.66
2023-05-19T14:53:54.545Z,37.45
2023-05-19T14:56:56.449Z,37.80
2023-05-19T14:59:58.498Z,37.65
2023-05-19T15:03:00.438Z,37.93
2023-05-19T15:06:02.402Z,37.47
2023-05-19T15:09:04.591Z,37.42
2023-05-19T15:12:06.421Z,36.67
2023-05-19T15:15:08.835Z,36.06
2023-05-19T15:18:11.639Z,35.58
2023-05-19T15:21:13.696Z,35.79
2023-05-19T15:24:15.681Z,37.59
2023-05-19T15:27:17.687Z,38.25
2023-05-19T15:30:19.759Z,37.51
2023-05-19T15:33:21.719Z,37.20
2023-05-19T15:36:24.217Z,37.70
2023-05-19T15:39:26.138Z,36.72
2023-05-19T15:42:28.145Z,36.86
2023-05-19T15:45:30.070Z,38.14
2023-05-19T15:48:32.418Z,38.65
2023-05-19T15:51:34.453Z,37.52
2023-05-19T15:54:36.479Z,37.71
2023-05-19T15:57:38.426Z,38.82
2023-05-19T16:00:40.516Z,36.48
2023-05-19T16:03:42.589Z,37.71
2023-05-19T16:06:44.864Z,37.67
2023-05-19T16:09:46.955Z,37.11
2023-05-19T16:12:48.941Z,37.17
2023-05-19T16:15:50.890Z,39.05
2023-05-19T16:18:53.071Z,38.51
2023-05-19T16:21:55.124Z,37.01
2023-05-19T16:24:57.109Z,37.48
2023-05-19T16:27:59.096Z,38.74
2023-05-19T16:31:01.270Z,36.98
2023-05-19T16:34:03.324Z,37.00
2023-05-19T16:37:05.233Z,36.37
2023-05-19T16:40:09.811Z,35.85
2023-05-19T16:43:11.694Z,37.91
2023-05-19T16:46:13.694Z,38.91
2023-05-19T16:49:15.851Z,37.57
2023-05-19T16:52:17.878Z,38.06
2023-05-19T16:55:20.318Z,39.13
2023-05-19T16:58:22.262Z,38.40
2023-05-19T17:01:24.214Z,38.71
2023-05-19T17:04:29.384Z,39.16
2023-05-19T17:07:32.766Z,38.17
2023-05-19T17:10:34.940Z,39.02
2023-05-19T17:13:37.220Z,37.26
2023-05-19T17:16:39.216Z,37.60
2023-05-19T17:19:41.380Z,37.15
2023-05-19T17:22:43.471Z,37.47
2023-05-19T17:25:45.529Z,37.08
2023-05-19T17:28:47.922Z,38.10
2023-05-19T17:31:50.010Z,38.58
2023-05-19T17:34:52.386Z,39.27
2023-05-19T17:37:54.317Z,39.37
2023-05-19T17:40:59.749Z,41.04
2023-05-19T17:44:02.797Z,41.57
2023-05-19T17:47:05.364Z,40.44
2023-05-19T17:50:07.513Z,40.19
2023-05-19T17:53:09.539Z,40.06
2023-05-19T17:56:12.051Z,40.55
2023-05-19T17:59:14.101Z,40.25
2023-05-19T18:02:18.909Z,42.71
2023-05-19T18:05:21.378Z,41.49
2023-05-19T18:08:23.543Z,41.83
2023-05-19T18:11:26.559Z,42.98
2023-05-19T18:14:28.625Z,42.38
2023-05-19T18:17:30.645Z,45.48
2023-05-19T18:20:34.008Z,45.74
2023-05-19T18:23:36.198Z,47.68
2023-05-19T18:26:41.884Z,46.97
2023-05-19T18:29:44.041Z,48.07
2023-05-19T18:32:46.004Z,47.61
2023-05-19T18:35:48.120Z,48.04
2023-05-19T18:38:50.172Z,49.29
2023-05-19T18:41:52.282Z,48.68
2023-05-19T18:44:54.347Z,49.50
2023-05-19T18:47:57.367Z,51.31
2023-05-19T18:50:59.401Z,51.67
2023-05-19T18:54:01.383Z,52.69
2023-05-19T18:57:03.689Z,52.46
2023-05-19T19:00:05.868Z,52.24
2023-05-19T19:03:10.298Z,52.17
2023-05-19T19:06:12.558Z,52.12
2023-05-19T19:09:14.658Z,52.03
2023-05-19T19:15:18.586Z,53.11
2023-05-19T19:18:20.658Z,52.40
2023-05-19T19:21:24.432Z,54.47
2023-05-19T19:24:29.094Z,55.25
2023-05-19T19:27:31.306Z,55.68
2023-05-19T19:30:33.453Z,54.46
2023-05-19T19:33:35.691Z,53.11
2023-05-19T19:36:37.617Z,52.45
2023-05-19T19:39:39.714Z,51.83
2023-05-19T19:42:41.698Z,52.55
2023-05-19T19:45:43.686Z,53.60
2023-05-19T19:48:45.707Z,55.15
2023-05-19T19:51:47.642Z,56.76
2023-05-19T19:54:49.675Z,54.33
2023-05-19T19:57:51.575Z,55.22
2023-05-19T20:01:00.302Z,57.80
2023-05-19T20:04:02.389Z,57.88
2023-05-19T20:07:04.486Z,56.91
2023-05-19T20:10:06.713Z,56.59
2023-05-19T20:13:08.676Z,55.93
2023-05-19T20:16:10.746Z,56.83
2023-05-19T20:19:12.678Z,57.92
2023-05-19T20:22:14.877Z,59.18
2023-05-19T20:25:19.360Z,58.06
2023-05-19T20:28:24.096Z,56.94
2023-05-19T20:31:26.281Z,58.86
2023-05-19T20:34:28.198Z,58.90
2023-05-19T20:37:30.194Z,59.48
2023-05-19T20:40:32.383Z,61.43
2023-05-19T20:43:34.293Z,60.35
2023-05-19T20:46:36.353Z,58.83
2023-05-19T20:49:38.269Z,60.03
2023-05-19T20:52:40.121Z,60.08
2023-05-19T20:55:44.309Z,62.38
2023-05-19T20:58:46.296Z,62.75
2023-05-19T21:01:48.247Z,62.93
2023-05-19T21:04:50.873Z,64.62
2023-05-19T21:07:52.773Z,61.29
2023-05-19T21:10:54.801Z,62.31
2023-05-19T21:13:56.826Z,59.46
2023-05-19T21:16:58.925Z,64.06
2023-05-19T21:20:01.182Z,65.24
2023-05-19T21:23:03.024Z,65.89
2023-05-19T21:26:06.261Z,63.78
2023-05-19T21:29:08.309Z,62.27
2023-05-19T21:32:10.265Z,62.11
2023-05-19T21:35:14.314Z,62.50
2023-05-19T21:41:24.458Z,63.44
2023-05-19T21:44:26.456Z,63.12
2023-05-19T21:47:28.514Z,64.33
2023-05-19T21:50:30.997Z,67.59
2023-05-19T21:53:32.960Z,66.81
2023-05-19T21:56:34.916Z,66.70
2023-05-19T21:59:36.802Z,68.58
2023-05-19T22:02:39.502Z,69.52
2023-05-19T22:05:41.428Z,68.88
2023-05-19T22:08:43.479Z,70.37
2023-05-19T22:11:48.042Z,70.80
2023-05-19T22:14:50.045Z,69.24
2023-05-19T22:17:51.969Z,67.58
2023-05-19T22:20:53.905Z,66.37
2023-05-19T22:23:55.976Z,67.13
2023-05-19T22:26:57.940Z,70.60
2023-05-19T22:30:00.014Z,71.14
2023-05-19T22:33:02.253Z,71.31
2023-05-19T22:36:04.552Z,71.87
2023-05-19T22:39:06.416Z,69.66
2023-05-19T22:42:08.468Z,69.09
2023-05-19T22:45:10.619Z,69.73
2023-05-19T22:48:12.737Z,69.00
2023-05-19T22:51:14.670Z,71.11
2023-05-19T22:54:16.624Z,67.66
2023-05-19T22:57:19.418Z,68.90
2023-05-19T23:00:21.660Z,64.43
2023-05-19T23:03:23.640Z,63.06
2023-05-19T23:06:25.587Z,65.35
2023-05-19T23:09:27.608Z,66.91
2023-05-19T23:12:29.477Z,66.37
2023-05-19T23:15:31.601Z,68.50
2023-05-19T23:18:33.598Z,69.06
2023-05-19T23:21:36.033Z,69.95
2023-05-19T23:24:37.991Z,69.37
2023-05-19T23:27:39.982Z,71.03
2023-05-19T23:30:42.097Z,72.45
2023-05-19T23:33:44.014Z,70.11
2023-05-19T23:36:45.955Z,72.46
2023-05-19T23:39:47.868Z,68.63
2023-05-19T23:42:49.826Z,67.51
2023-05-19T23:45:51.768Z,68.10
2023-05-19T23:48:53.688Z,67.54
2023-05-19T23:52:00.874Z,68.64
2023-05-19T23:55:03.683Z,73.62
2023-05-19T23:58:05.668Z,74.97
